Time;durP1;ratioP1;P1;durP2;ratioP2;P2;SDS_P1;SDS_P2;PMS_P1;PMS_P2;Temp;Humidity;BMP_temperature;BMP_pressure;BME280_temperature;BME280_humidity;BME280_pressure;Samples;Min_cycle;Max_cycle;Signal;HPM_P1;HPM_P2
2023/06/26 00:01:15;;;;;;;87.50;2.43;;;25.30;24.70;;;;;;5000001;28;20436;-80
2023/06/26 00:03:40;;;;;;;87.17;2.60;;;25.40;25.80;;;;;;4999413;28;20228;-80
2023/06/26 00:06:06;;;;;;;87.77;2.70;;;25.40;25.20;;;;;;5023592;23;20699;-73
2023/06/26 00:08:31;;;;;;;87.87;2.93;;;25.30;25.20;;;;;;5009820;28;20209;-74
2023/06/26 00:10:57;;;;;;;87.57;2.70;;;25.30;25.30;;;;;;5013204;28;20211;-73
2023/06/26 00:13:24;;;;;;;87.40;2.40;;;25.40;23.00;;;;;;5014425;28;20177;-73
2023/06/26 00:15:50;;;;;;;89.67;3.23;;;25.40;22.50;;;;;;5012819;28;20476;-73
2023/06/26 00:18:16;;;;;;;87.40;2.50;;;25.40;22.90;;;;;;5014263;28;20416;-74
2023/06/26 00:20:41;;;;;;;87.27;2.40;;;25.40;24.10;;;;;;5014295;28;20772;-76
2023/06/26 00:23:07;;;;;;;87.80;2.87;;;25.40;23.00;;;;;;5014208;28;20544;-73
2023/06/26 00:25:33;;;;;;;89.40;3.27;;;25.40;24.00;;;;;;5013778;28;20181;-73
2023/06/26 00:27:59;;;;;;;87.67;2.63;;;25.40;22.50;;;;;;5014024;28;20200;-73
2023/06/26 00:30:25;;;;;;;87.37;2.40;;;25.40;23.40;;;;;;5014210;28;20419;-73
2023/06/26 00:32:51;;;;;;;87.27;2.43;;;25.00;22.80;;;;;;5014128;28;20173;-73
2023/06/26 00:35:17;;;;;;;89.57;2.80;;;24.50;25.10;;;;;;5013766;28;20223;-74
2023/06/26 00:37:42;;;;;;;87.30;2.40;;;24.40;24.90;;;;;;5013885;28;20439;-73
2023/06/26 00:40:08;;;;;;;88.27;2.83;;;24.00;25.10;;;;;;5013839;28;20422;-73
2023/06/26 00:42:34;;;;;;;87.57;2.57;;;23.80;26.70;;;;;;5013800;28;20276;-76
2023/06/26 00:45:00;;;;;;;87.80;2.43;;;23.50;27.80;;;;;;5013637;28;20495;-73
2023/06/26 00:47:27;;;;;;;88.40;2.63;;;23.30;28.40;;;;;;5013618;28;20236;-73
2023/06/26 00:49:54;;;;;;;87.77;2.67;;;23.50;28.50;;;;;;5013538;28;20173;-75
2023/06/26 00:52:20;;;;;;;87.67;2.43;;;23.60;28.60;;;;;;5013722;28;20415;-73
2023/06/26 00:54:46;;;;;;;88.07;2.80;;;23.70;28.60;;;;;;5013508;28;20412;-73
2023/06/26 00:57:12;;;;;;;88.20;2.63;;;24.00;28.10;;;;;;5013409;28;20231;-74
2023/06/26 00:59:38;;;;;;;88.57;2.83;;;24.10;28.90;;;;;;5013604;28;20464;-73
2023/06/26 01:02:04;;;;;;;88.33;2.47;;;24.00;28.20;;;;;;5013254;28;20209;-73
2023/06/26 01:04:32;;;;;;;88.17;2.43;;;24.10;28.30;;;;;;5012604;28;20426;-74
2023/06/26 01:06:58;;;;;;;87.67;2.30;;;24.00;28.70;;;;;;5012893;28;20469;-73
2023/06/26 01:09:25;;;;;;;89.00;2.80;;;24.00;28.90;;;;;;5013413;28;20415;-73
2023/06/26 01:11:51;;;;;;;89.00;2.67;;;23.80;28.70;;;;;;5013728;28;20472;-73
2023/06/26 01:14:17;;;;;;;87.70;2.20;;;23.90;28.80;;;;;;5013199;28;20422;-73
2023/06/26 01:16:49;;;;;;;88.50;3.10;;;23.90;28.80;;;;;;5012760;28;20209;-73
2023/06/26 01:19:28;;;;;;;92.97;2.90;;;23.80;29.80;;;;;;5011888;28;20416;-75
2023/06/26 01:22:02;;;;;;;89.27;3.13;;;23.80;29.10;;;;;;5013179;28;20425;-73
2023/06/26 01:24:34;;;;;;;88.77;2.57;;;23.60;28.50;;;;;;5013015;28;20427;-73
2023/06/26 01:27:02;;;;;;;88.87;2.73;;;23.70;29.50;;;;;;5012735;28;20460;-76
2023/06/26 01:29:30;;;;;;;88.40;2.50;;;23.70;29.70;;;;;;5013499;28;20413;-73
2023/06/26 01:31:55;;;;;;;89.37;2.70;;;23.60;28.50;;;;;;5014329;28;20885;-75
2023/06/26 01:34:21;;;;;;;91.10;3.37;;;23.50;29.30;;;;;;5012969;28;20493;-73
2023/06/26 01:36:47;;;;;;;88.70;2.70;;;23.60;29.70;;;;;;5012890;28;20571;-73
2023/06/26 01:39:16;;;;;;;88.27;2.50;;;23.60;29.30;;;;;;5012760;28;20217;-73
2023/06/26 01:41:42;;;;;;;88.80;2.63;;;23.60;29.50;;;;;;5012766;28;20563;-75
2023/06/26 01:44:29;;;;;;;88.77;2.67;;;23.60;30.10;;;;;;5012828;28;20409;-73
2023/06/26 01:47:03;;;;;;;89.77;2.87;;;23.70;30.00;;;;;;5012628;28;20204;-73
2023/06/26 01:49:46;;;;;;;90.43;3.10;;;23.60;29.70;;;;;;5012959;28;20392;-73
2023/06/26 01:53:07;;;;;;;88.70;2.50;;;23.50;30.40;;;;;;5012599;28;20411;-75
2023/06/26 01:55:38;;;;;;;89.40;2.60;;;23.40;30.00;;;;;;4990212;28;20434;-73
2023/06/26 01:58:04;;;;;;;90.47;2.83;;;23.10;30.40;;;;;;4990727;28;20512;-74
2023/06/26 02:00:31;;;;;;;89.50;2.60;;;23.10;31.20;;;;;;4990373;28;20656;-74
2023/06/26 02:02:57;;;;;;;89.67;2.67;;;23.20;31.30;;;;;;4990572;28;20212;-73
2023/06/26 02:05:23;;;;;;;89.00;2.20;;;23.20;31.10;;;;;;4990217;28;20423;-73
2023/06/26 02:07:49;;;;;;;90.17;2.73;;;23.10;30.70;;;;;;4990425;28;20472;-73
2023/06/26 02:10:15;;;;;;;89.77;2.67;;;23.00;31.80;;;;;;4990332;28;20418;-73
2023/06/26 02:12:40;;;;;;;89.70;2.50;;;23.10;31.40;;;;;;4990474;28;20186;-75
2023/06/26 02:15:07;;;;;;;90.20;2.80;;;22.90;31.10;;;;;;4989746;28;20182;-73
2023/06/26 02:17:32;;;;;;;90.00;2.80;;;22.90;31.90;;;;;;4990338;28;20300;-75
2023/06/26 02:19:58;;;;;;;90.03;2.70;;;22.90;32.00;;;;;;4990410;28;20513;-73
2023/06/26 02:22:23;;;;;;;90.17;2.50;;;23.10;31.40;;;;;;4990176;28;20188;-73
2023/06/26 02:24:49;;;;;;;90.47;2.70;;;22.90;31.90;;;;;;4989963;28;20275;-74
2023/06/26 02:27:15;;;;;;;90.37;2.73;;;22.90;31.40;;;;;;4990160;28;20212;-74
2023/06/26 02:29:42;;;;;;;89.90;2.27;;;22.80;30.80;;;;;;4990099;28;20193;-73
2023/06/26 02:32:08;;;;;;;91.40;3.33;;;22.80;31.90;;;;;;5010372;28;20280;-73
2023/06/26 02:34:34;;;;;;;90.03;2.60;;;22.90;32.30;;;;;;5011676;28;20760;-73
2023/06/26 02:37:00;;;;;;;90.33;2.53;;;22.70;31.30;;;;;;5011985;28;20456;-73
2023/06/26 02:39:26;;;;;;;103.93;3.37;;;22.50;32.20;;;;;;5012072;28;20417;-73
2023/06/26 02:41:52;;;;;;;90.97;2.83;;;22.50;32.80;;;;;;5012113;28;20183;-73
2023/06/26 02:44:18;;;;;;;90.57;2.63;;;22.60;32.40;;;;;;5011871;28;20414;-74
2023/06/26 02:46:43;;;;;;;95.70;2.80;;;22.70;32.10;;;;;;5011559;28;20203;-74
2023/06/26 02:49:09;;;;;;;92.07;2.70;;;22.70;32.40;;;;;;5011909;28;20187;-73
2023/06/26 02:51:34;;;;;;;91.20;2.97;;;22.50;31.00;;;;;;5011942;28;20190;-73
2023/06/26 02:54:00;;;;;;;90.33;2.40;;;22.50;32.30;;;;;;5011614;28;20226;-73
2023/06/26 02:56:29;;;;;;;90.60;2.60;;;22.50;31.00;;;;;;5011805;28;20290;-73
2023/06/26 02:58:58;;;;;;;91.47;3.10;;;22.40;31.70;;;;;;5011812;28;20502;-73
2023/06/26 03:01:24;;;;;;;97.50;3.10;;;22.30;32.20;;;;;;5012201;28;20512;-73
2023/06/26 03:03:49;;;;;;;90.67;2.63;;;22.00;33.10;;;;;;5016184;28;20833;-72
2023/06/26 03:06:15;;;;;;;93.10;2.93;;;22.10;33.00;;;;;;5013167;28;20779;-73
2023/06/26 03:08:41;;;;;;;91.60;3.10;;;22.20;33.00;;;;;;5017155;28;20196;-73
2023/06/26 03:11:08;;;;;;;90.90;2.47;;;22.40;32.10;;;;;;5010574;28;20176;-73
2023/06/26 03:13:35;;;;;;;91.97;3.13;;;22.30;33.00;;;;;;5011658;28;20468;-74
2023/06/26 03:16:01;;;;;;;91.27;2.50;;;22.20;32.40;;;;;;5011383;28;20933;-73
2023/06/26 03:18:27;;;;;;;90.77;2.50;;;22.20;32.60;;;;;;5011627;28;20413;-73
2023/06/26 03:20:55;;;;;;;91.67;2.60;;;22.10;32.20;;;;;;5011659;28;20659;-73
2023/06/26 03:23:22;;;;;;;91.20;2.60;;;22.00;32.30;;;;;;5011672;28;20460;-73
2023/06/26 03:25:48;;;;;;;91.30;2.47;;;22.00;33.70;;;;;;5011510;28;20442;-73
2023/06/26 03:28:14;;;;;;;92.97;2.83;;;22.10;32.90;;;;;;5015283;28;20457;-75
2023/06/26 03:30:39;;;;;;;92.57;3.17;;;22.20;33.10;;;;;;5014958;28;20989;-73
2023/06/26 03:33:05;;;;;;;91.33;2.20;;;22.20;33.20;;;;;;5015330;28;20182;-73
2023/06/26 03:35:31;;;;;;;93.73;2.97;;;22.50;31.20;;;;;;5014906;28;20202;-73
2023/06/26 03:37:57;;;;;;;92.10;2.70;;;22.30;31.20;;;;;;5015208;28;20234;-75
2023/06/26 03:40:23;;;;;;;91.97;2.77;;;22.20;31.60;;;;;;5015140;28;20548;-73
2023/06/26 03:42:48;;;;;;;133.47;4.63;;;22.10;31.70;;;;;;5014829;28;20416;-73
2023/06/26 03:45:14;;;;;;;91.90;2.93;;;22.10;31.90;;;;;;5014801;28;20393;-73
2023/06/26 03:47:39;;;;;;;91.90;2.90;;;22.00;33.00;;;;;;5014934;28;20295;-73
2023/06/26 03:50:05;;;;;;;92.47;3.30;;;22.00;32.70;;;;;;5014646;28;20538;-73
2023/06/26 03:52:31;;;;;;;91.37;2.50;;;22.10;32.80;;;;;;5014882;28;20226;-74
2023/06/26 03:55:00;;;;;;;92.97;3.07;;;22.00;32.20;;;;;;5014526;28;20405;-75
2023/06/26 03:57:26;;;;;;;93.50;2.60;;;22.00;33.00;;;;;;5014781;28;20198;-73
2023/06/26 03:59:52;;;;;;;92.57;3.17;;;22.10;32.60;;;;;;5014620;28;20421;-73
2023/06/26 04:02:18;;;;;;;92.40;3.10;;;22.00;33.30;;;;;;5014747;28;20202;-73
2023/06/26 04:04:44;;;;;;;91.17;2.20;;;22.00;33.30;;;;;;5014465;28;20900;-73
2023/06/26 04:07:09;;;;;;;91.70;2.70;;;22.00;33.10;;;;;;5014288;28;20467;-73
2023/06/26 04:09:35;;;;;;;91.73;2.60;;;22.10;33.00;;;;;;5014500;28;20586;-73
2023/06/26 04:12:00;;;;;;;91.77;2.63;;;22.20;32.60;;;;;;5014533;28;20213;-73
2023/06/26 04:14:26;;;;;;;91.90;2.90;;;22.30;33.00;;;;;;5012976;28;20232;-73
2023/06/26 04:16:52;;;;;;;92.10;2.90;;;22.30;33.40;;;;;;5014095;28;20507;-73
2023/06/26 04:19:17;;;;;;;92.30;3.20;;;22.40;32.30;;;;;;5014387;28;20174;-73
2023/06/26 04:21:43;;;;;;;91.37;2.30;;;22.50;32.20;;;;;;5014178;28;20165;-73
2023/06/26 04:24:09;;;;;;;92.37;2.57;;;22.50;31.40;;;;;;5014386;28;20214;-73
2023/06/26 04:26:35;;;;;;;91.70;2.80;;;22.30;30.80;;;;;;5013711;28;20208;-73
2023/06/26 04:29:01;;;;;;;93.17;3.10;;;22.30;31.60;;;;;;5014052;28;20196;-73
2023/06/26 04:31:27;;;;;;;91.50;2.40;;;22.00;32.30;;;;;;5014092;28;20418;-73
2023/06/26 04:33:54;;;;;;;92.40;3.10;;;22.00;32.10;;;;;;5014196;28;20426;-73
2023/06/26 04:36:20;;;;;;;91.77;2.90;;;21.80;32.20;;;;;;5013527;28;20455;-74
2023/06/26 04:38:49;;;;;;;92.47;3.27;;;21.60;32.90;;;;;;5013817;28;20412;-74
2023/06/26 04:41:15;;;;;;;94.07;3.00;;;21.30;34.50;;;;;;5013241;28;20427;-73
2023/06/26 04:43:41;;;;;;;93.67;2.97;;;21.30;33.50;;;;;;5014003;28;20458;-73
2023/06/26 04:46:06;;;;;;;91.57;2.57;;;21.10;34.20;;;;;;5013653;28;20200;-73
2023/06/26 04:48:32;;;;;;;93.77;2.80;;;21.20;33.10;;;;;;5013641;28;20239;-73
2023/06/26 04:50:58;;;;;;;92.20;3.10;;;21.30;32.40;;;;;;5013752;28;20187;-73
2023/06/26 04:53:24;;;;;;;91.70;2.80;;;21.80;33.00;;;;;;5013858;28;20540;-73
2023/06/26 04:55:51;;;;;;;92.63;3.30;;;22.50;31.60;;;;;;5013256;28;20445;-73
2023/06/26 04:58:17;;;;;;;91.57;2.83;;;22.80;32.60;;;;;;5013629;28;20904;-75
2023/06/26 05:00:43;;;;;;;92.57;2.60;;;22.90;32.10;;;;;;5013533;28;20506;-76
2023/06/26 05:03:12;;;;;;;91.47;2.60;;;23.00;30.80;;;;;;5013604;28;20196;-75
2023/06/26 05:05:38;;;;;;;92.17;2.90;;;23.00;31.10;;;;;;5012780;28;20502;-73
2023/06/26 05:08:18;;;;;;;91.77;2.80;;;23.30;31.60;;;;;;5013099;28;20671;-74
2023/06/26 05:10:44;;;;;;;93.10;2.97;;;23.30;31.00;;;;;;5013406;28;20430;-73
2023/06/26 05:13:10;;;;;;;92.27;2.87;;;23.30;31.00;;;;;;5013431;28;20412;-73
2023/06/26 05:15:36;;;;;;;92.50;3.17;;;23.40;30.40;;;;;;5011709;28;20950;-73
2023/06/26 05:18:02;;;;;;;91.67;2.80;;;23.40;30.20;;;;;;5013230;28;20417;-73
2023/06/26 05:20:27;;;;;;;91.47;2.60;;;23.50;30.40;;;;;;5012963;28;20235;-73
2023/06/26 05:22:53;;;;;;;91.40;2.43;;;23.50;29.60;;;;;;5013219;28;20200;-76
2023/06/26 05:25:21;;;;;;;91.60;2.47;;;23.70;29.90;;;;;;5008580;28;20239;-74
2023/06/26 05:27:47;;;;;;;91.90;2.70;;;23.70;30.00;;;;;;4992184;28;20471;-73
2023/06/26 05:30:15;;;;;;;90.93;2.40;;;23.60;28.50;;;;;;4993470;28;20406;-73
2023/06/26 05:32:41;;;;;;;92.70;2.60;;;23.30;28.60;;;;;;4993452;28;20478;-73
2023/06/26 05:35:07;;;;;;;93.80;2.90;;;23.10;29.10;;;;;;4992885;28;20890;-75
2023/06/26 05:37:34;;;;;;;92.27;3.10;;;22.60;30.00;;;;;;4992647;28;20431;-73
2023/06/26 05:40:00;;;;;;;91.80;2.80;;;22.40;31.30;;;;;;4992968;28;20411;-75
2023/06/26 05:42:28;;;;;;;91.60;2.73;;;22.50;32.80;;;;;;4993320;28;20427;-73
2023/06/26 05:44:53;;;;;;;92.27;2.87;;;22.40;31.70;;;;;;4993211;28;20419;-73
2023/06/26 05:47:19;;;;;;;90.97;2.40;;;22.60;31.60;;;;;;4993180;28;20465;-73
2023/06/26 05:49:44;;;;;;;93.63;2.67;;;22.70;30.40;;;;;;4992504;28;20640;-73
2023/06/26 05:52:11;;;;;;;93.70;2.90;;;23.00;29.90;;;;;;4991943;28;20169;-73
2023/06/26 05:54:36;;;;;;;91.40;2.70;;;23.20;30.00;;;;;;4993139;28;20177;-73
2023/06/26 05:57:03;;;;;;;92.10;3.00;;;23.30;29.50;;;;;;4993141;28;20436;-73
2023/06/26 05:59:31;;;;;;;91.90;3.13;;;23.50;29.60;;;;;;4992577;28;20247;-73
2023/06/26 06:01:56;;;;;;;91.77;3.20;;;23.60;29.80;;;;;;4992719;28;20412;-73
2023/06/26 06:04:22;;;;;;;90.83;2.57;;;23.90;29.10;;;;;;4992862;28;20433;-76
2023/06/26 06:06:47;;;;;;;91.27;2.70;;;24.30;29.00;;;;;;4992642;28;20212;-73
2023/06/26 06:09:13;;;;;;;92.23;3.70;;;24.50;28.20;;;;;;4992557;28;20176;-73
2023/06/26 06:11:38;;;;;;;90.83;2.90;;;25.00;28.20;;;;;;4992872;28;20168;-73
2023/06/26 06:14:04;;;;;;;91.23;2.80;;;25.10;27.80;;;;;;4992742;28;20261;-76
2023/06/26 06:16:30;;;;;;;92.17;3.10;;;24.50;28.00;;;;;;4992196;28;20284;-73
2023/06/26 06:18:55;;;;;;;91.20;3.00;;;24.00;28.80;;;;;;4992620;28;20204;-73
2023/06/26 06:21:21;;;;;;;91.17;2.63;;;24.30;29.00;;;;;;4992178;28;20178;-74
2023/06/26 06:23:46;;;;;;;91.10;2.90;;;24.40;29.10;;;;;;4989850;28;20187;-73
2023/06/26 06:26:12;;;;;;;90.70;2.53;;;24.70;29.10;;;;;;4992333;28;20189;-73
2023/06/26 06:28:39;;;;;;;90.17;2.60;;;25.40;27.20;;;;;;4992222;28;20276;-73
2023/06/26 06:31:04;;;;;;;91.90;2.90;;;25.50;26.90;;;;;;4992686;28;20669;-75
2023/06/26 06:33:30;;;;;;;91.37;2.90;;;25.40;27.40;;;;;;4992477;28;20416;-73
2023/06/26 06:35:55;;;;;;;91.50;2.73;;;25.10;27.90;;;;;;4990977;28;20336;-73
2023/06/26 06:38:21;;;;;;;91.57;3.30;;;25.10;28.60;;;;;;4993107;28;20193;-73
2023/06/26 06:40:46;;;;;;;90.30;2.60;;;25.30;28.10;;;;;;4992434;28;20226;-73
2023/06/26 06:43:12;;;;;;;90.90;2.90;;;24.90;28.40;;;;;;4992542;28;20236;-73
2023/06/26 06:45:38;;;;;;;90.40;2.83;;;24.70;29.30;;;;;;4992305;28;20178;-73
2023/06/26 06:48:04;;;;;;;90.30;2.73;;;24.70;28.60;;;;;;4992627;28;20193;-74
2023/06/26 06:50:30;;;;;;;91.77;2.83;;;24.70;29.30;;;;;;4992921;28;20170;-73
2023/06/26 06:52:55;;;;;;;90.37;2.57;;;25.30;28.30;;;;;;4991858;28;20439;-74
2023/06/26 06:55:21;;;;;;;90.77;2.67;;;25.50;27.90;;;;;;4992029;28;20217;-73
2023/06/26 06:57:46;;;;;;;90.60;2.60;;;26.10;27.50;;;;;;4992157;28;20217;-73
2023/06/26 07:00:16;;;;;;;90.30;2.87;;;26.60;26.70;;;;;;4992463;28;20173;-73
2023/06/26 07:02:43;;;;;;;90.07;2.77;;;27.00;25.80;;;;;;5007092;28;20180;-73
2023/06/26 07:05:10;;;;;;;89.60;2.50;;;27.20;25.20;;;;;;5006981;28;20431;-76
2023/06/26 07:07:37;;;;;;;98.73;3.13;;;27.50;24.60;;;;;;4998537;28;20468;-76
2023/06/26 07:10:13;;;;;;;90.17;2.77;;;27.70;24.70;;;;;;5017917;23;21019;-79
2023/06/26 07:12:39;;;;;;;90.20;2.50;;;27.70;25.10;;;;;;4992854;28;20435;-79
2023/06/26 07:15:08;;;;;;;89.57;2.60;;;27.80;24.80;;;;;;4994930;28;20421;-79
2023/06/26 07:17:34;;;;;;;90.33;2.87;;;27.60;24.20;;;;;;4996398;28;20193;-78
2023/06/26 07:20:01;;;;;;;89.90;2.83;;;27.60;24.40;;;;;;4996714;28;20429;-79
2023/06/26 07:22:26;;;;;;;90.40;2.83;;;28.00;24.40;;;;;;4997333;28;20434;-79
2023/06/26 07:24:52;;;;;;;89.67;2.67;;;27.70;23.60;;;;;;4995862;28;20479;-79
2023/06/26 07:27:20;;;;;;;88.90;2.20;;;27.60;23.40;;;;;;4996558;28;20201;-79
2023/06/26 07:29:45;;;;;;;91.20;2.63;;;27.60;22.90;;;;;;4996046;28;20436;-79
2023/06/26 07:32:11;;;;;;;90.17;2.73;;;27.50;23.40;;;;;;4995510;28;20412;-79
2023/06/26 07:34:37;;;;;;;88.97;2.57;;;27.80;22.90;;;;;;4995494;28;20217;-79
2023/06/26 07:37:02;;;;;;;89.87;3.00;;;27.70;23.60;;;;;;4995989;28;20231;-79
2023/06/26 07:39:29;;;;;;;88.27;2.30;;;27.90;23.10;;;;;;4996069;28;20244;-80
2023/06/26 07:41:54;;;;;;;88.10;1.90;;;28.20;21.30;;;;;;4995092;28;20327;-79
2023/06/26 07:44:20;;;;;;;88.20;2.33;;;28.30;21.80;;;;;;4993904;28;20507;-78
2023/06/26 07:46:45;;;;;;;88.73;2.80;;;28.40;21.80;;;;;;4994119;28;20261;-78
2023/06/26 07:49:12;;;;;;;88.20;2.47;;;28.20;22.00;;;;;;4994765;28;20718;-78
2023/06/26 07:51:37;;;;;;;87.57;2.20;;;27.60;22.90;;;;;;4994572;28;20165;-78
2023/06/26 07:54:03;;;;;;;87.67;2.40;;;28.20;21.30;;;;;;4994465;28;20495;-78
2023/06/26 07:56:29;;;;;;;89.37;2.70;;;28.40;20.80;;;;;;4994468;28;20252;-79
2023/06/26 07:58:57;;;;;;;88.20;2.57;;;28.70;21.10;;;;;;4994403;28;20564;-79
2023/06/26 08:01:23;;;;;;;88.10;2.60;;;29.00;20.30;;;;;;4994571;28;20178;-78
2023/06/26 08:03:49;;;;;;;88.90;2.50;;;29.20;20.00;;;;;;4994865;28;20928;-78
2023/06/26 08:06:14;;;;;;;87.57;2.67;;;29.20;19.20;;;;;;4994255;28;20424;-78
2023/06/26 08:08:40;;;;;;;87.70;2.60;;;29.10;20.10;;;;;;4994754;28;20700;-79
2023/06/26 08:11:05;;;;;;;87.60;2.53;;;29.40;18.90;;;;;;4994104;28;20170;-79
2023/06/26 08:13:31;;;;;;;86.87;2.57;;;28.80;19.80;;;;;;4993468;28;20181;-78
2023/06/26 08:15:56;;;;;;;86.27;2.10;;;28.30;20.20;;;;;;4993665;28;20178;-78
2023/06/26 08:18:22;;;;;;;87.20;2.60;;;28.90;20.30;;;;;;4993096;28;20165;-79
2023/06/26 08:20:48;;;;;;;86.27;2.40;;;29.10;19.90;;;;;;4994381;28;20198;-79
2023/06/26 08:23:13;;;;;;;86.70;2.50;;;29.60;19.50;;;;;;4994270;28;20174;-79
2023/06/26 08:25:39;;;;;;;87.50;2.30;;;30.20;19.70;;;;;;4994337;28;20220;-78
2023/06/26 08:28:04;;;;;;;87.00;2.77;;;29.90;18.70;;;;;;4994217;28;20209;-79
2023/06/26 08:30:31;;;;;;;85.50;2.10;;;29.60;19.00;;;;;;4993318;28;20198;-78
2023/06/26 08:32:57;;;;;;;86.33;2.73;;;29.80;19.00;;;;;;4995039;28;20178;-78
2023/06/26 08:35:23;;;;;;;87.33;2.70;;;29.30;19.00;;;;;;4994371;28;20905;-78
2023/06/26 08:37:49;;;;;;;85.07;2.17;;;29.10;19.30;;;;;;4994578;28;20547;-78
2023/06/26 08:40:18;;;;;;;86.20;2.37;;;29.60;18.70;;;;;;4994295;28;20213;-79
2023/06/26 08:42:44;;;;;;;86.33;2.77;;;29.90;18.50;;;;;;4994809;28;20332;-78
2023/06/26 08:45:10;;;;;;;85.90;2.50;;;29.60;18.70;;;;;;4994288;28;20951;-79
2023/06/26 08:47:37;;;;;;;86.77;2.70;;;29.80;18.50;;;;;;4993974;28;20500;-79
2023/06/26 08:50:13;;;;;;;84.87;2.30;;;30.20;18.70;;;;;;4994249;28;20500;-78
2023/06/26 08:53:01;;;;;;;84.60;2.10;;;30.00;18.60;;;;;;4993893;28;20393;-78
2023/06/26 08:55:29;;;;;;;84.97;2.40;;;29.80;18.60;;;;;;4993599;28;20787;-79
2023/06/26 08:57:55;;;;;;;85.37;2.67;;;29.80;18.40;;;;;;4993906;28;20538;-80
2023/06/26 09:00:21;;;;;;;85.90;2.53;;;30.10;18.60;;;;;;4994018;28;20448;-78
2023/06/26 09:02:47;;;;;;;84.47;2.30;;;30.60;18.00;;;;;;4993589;28;20413;-79
2023/06/26 09:05:12;;;;;;;85.10;2.57;;;30.90;17.40;;;;;;4993623;28;20712;-78
2023/06/26 09:07:38;;;;;;;84.77;2.53;;;30.30;17.70;;;;;;4993573;28;20600;-78
2023/06/26 09:10:04;;;;;;;84.87;2.50;;;29.70;18.90;;;;;;4993158;28;20233;-78
2023/06/26 09:12:30;;;;;;;85.20;2.60;;;29.70;18.90;;;;;;4993862;28;20174;-78
2023/06/26 09:14:56;;;;;;;89.80;2.10;;;29.50;18.90;;;;;;4993357;28;20252;-80
2023/06/26 09:17:28;;;;;;;84.70;2.37;;;29.70;18.40;;;;;;4993074;28;20970;-79
2023/06/26 09:19:54;;;;;;;84.83;2.50;;;29.90;18.30;;;;;;4992088;28;20669;-78
2023/06/26 09:22:20;;;;;;;85.47;2.57;;;30.00;18.40;;;;;;4993080;28;20419;-79
2023/06/26 09:24:45;;;;;;;84.30;2.30;;;30.50;18.80;;;;;;4992245;28;20235;-79
2023/06/26 09:27:11;;;;;;;84.67;2.67;;;31.00;17.00;;;;;;4993153;28;20288;-78
2023/06/26 09:29:38;;;;;;;84.40;2.30;;;30.40;17.80;;;;;;4993299;28;20280;-79
2023/06/26 09:32:04;;;;;;;84.70;2.60;;;30.90;17.20;;;;;;4992989;28;20170;-78
2023/06/26 09:34:31;;;;;;;84.23;2.33;;;31.30;17.00;;;;;;4993020;28;20417;-78
2023/06/26 09:36:58;;;;;;;84.80;2.30;;;30.90;17.00;;;;;;4992915;28;20199;-79
2023/06/26 09:39:24;;;;;;;84.97;2.60;;;31.00;17.20;;;;;;4993225;28;20443;-79
2023/06/26 09:41:50;;;;;;;84.83;2.43;;;31.30;15.90;;;;;;4993171;28;20492;-80
2023/06/26 09:44:16;;;;;;;84.87;2.50;;;31.60;16.40;;;;;;4992901;28;20412;-79
2023/06/26 09:46:45;;;;;;;84.80;2.70;;;31.10;16.10;;;;;;4992496;28;20421;-79
2023/06/26 09:49:11;;;;;;;83.97;2.40;;;31.20;16.40;;;;;;4992552;28;20186;-80
2023/06/26 09:51:39;;;;;;;83.60;2.20;;;31.10;15.80;;;;;;4992830;28;20409;-78
2023/06/26 09:54:05;;;;;;;84.30;2.50;;;31.20;16.30;;;;;;4992970;28;20497;-79
2023/06/26 09:56:32;;;;;;;84.23;2.23;;;30.80;17.10;;;;;;4992460;28;20409;-79
2023/06/26 09:58:59;;;;;;;83.80;2.17;;;31.20;16.40;;;;;;4992912;28;20519;-80
2023/06/26 10:01:25;;;;;;;85.37;2.80;;;31.60;16.00;;;;;;4992411;28;20416;-78
2023/06/26 10:03:51;;;;;;;83.77;2.50;;;31.70;15.70;;;;;;4992693;28;20405;-79
2023/06/26 10:07:01;;;;;;;84.40;2.80;;;31.80;15.50;;;;;;4992557;28;20801;-79
2023/06/26 10:09:28;;;;;;;83.90;2.27;;;32.40;15.30;;;;;;4990353;28;20225;-79
2023/06/26 10:12:05;;;;;;;83.20;2.27;;;32.40;14.50;;;;;;4990596;28;20420;-79
2023/06/26 10:14:41;;;;;;;83.40;2.20;;;32.50;14.90;;;;;;4990724;28;20807;-80
2023/06/26 10:17:15;;;;;;;84.23;2.50;;;32.70;14.10;;;;;;4992524;28;20501;-79
2023/06/26 10:19:44;;;;;;;83.30;2.30;;;33.00;13.50;;;;;;4993577;28;20476;-80
2023/06/26 10:22:17;;;;;;;83.47;2.60;;;32.30;15.00;;;;;;4993499;28;20440;-80
2023/06/26 10:24:45;;;;;;;87.73;2.30;;;31.40;15.70;;;;;;4993597;28;20936;-79
2023/06/26 10:27:22;;;;;;;83.27;2.33;;;31.40;16.10;;;;;;4994671;28;20611;-79
2023/06/26 10:29:53;;;;;;;83.07;2.40;;;32.20;15.20;;;;;;4979162;28;20849;-79
2023/06/26 10:32:20;;;;;;;83.33;2.23;;;31.70;16.10;;;;;;4960320;28;20797;-79
2023/06/26 10:34:46;;;;;;;82.90;2.10;;;31.70;15.40;;;;;;4991381;28;20417;-79
2023/06/26 10:37:12;;;;;;;83.57;2.70;;;31.90;15.90;;;;;;4989781;28;20790;-79
2023/06/26 10:39:54;;;;;;;82.70;2.07;;;32.50;14.40;;;;;;4990147;28;20205;-79
2023/06/26 10:42:33;;;;;;;83.50;2.27;;;32.50;14.40;;;;;;4991870;28;20452;-79
2023/06/26 10:45:19;;;;;;;82.93;2.50;;;32.70;14.20;;;;;;4992397;28;20433;-79
2023/06/26 10:47:51;;;;;;;82.80;2.43;;;31.90;13.80;;;;;;4992106;28;20874;-79
2023/06/26 10:50:18;;;;;;;82.50;1.90;;;31.80;14.60;;;;;;4991985;28;20458;-79
2023/06/26 10:52:44;;;;;;;83.77;2.40;;;31.50;14.20;;;;;;4992315;28;20412;-78
2023/06/26 10:55:10;;;;;;;84.13;2.40;;;31.90;14.50;;;;;;4991865;28;20409;-79
2023/06/26 10:57:36;;;;;;;83.10;2.30;;;32.00;14.10;;;;;;4992156;28;20542;-79
2023/06/26 11:00:10;;;;;;;82.63;2.50;;;31.50;14.80;;;;;;4990696;28;20193;-79
2023/06/26 11:02:52;;;;;;;83.30;2.53;;;31.30;15.00;;;;;;4992278;28;20412;-79
2023/06/26 11:05:26;;;;;;;83.67;2.50;;;31.40;15.30;;;;;;4992096;28;20455;-79
2023/06/26 11:08:43;;;;;;;83.47;2.80;;;31.90;14.60;;;;;;4992510;28;20464;-79
2023/06/26 11:11:09;;;;;;;82.30;2.10;;;32.10;14.70;;;;;;4973028;28;20800;-78
2023/06/26 11:13:35;;;;;;;83.33;2.63;;;32.30;14.70;;;;;;4989868;28;20432;-78
2023/06/26 11:16:01;;;;;;;82.17;2.20;;;31.40;16.30;;;;;;4989609;28;20256;-79
2023/06/26 11:18:27;;;;;;;82.80;2.57;;;31.40;16.10;;;;;;4989797;28;20429;-79
2023/06/26 11:20:53;;;;;;;83.03;2.53;;;31.20;16.60;;;;;;4990542;28;20420;-78
2023/06/26 11:23:24;;;;;;;82.30;2.10;;;31.10;16.80;;;;;;4990276;28;20185;-79
2023/06/26 11:25:49;;;;;;;82.37;2.40;;;30.60;18.10;;;;;;4973430;28;20436;-80
2023/06/26 11:28:15;;;;;;;82.73;2.13;;;30.30;18.70;;;;;;4977842;28;20466;-79
2023/06/26 11:30:41;;;;;;;82.87;2.50;;;31.00;17.50;;;;;;4961255;28;20233;-78
2023/06/26 11:33:09;;;;;;;83.47;2.53;;;31.00;17.80;;;;;;4970187;28;20190;-79
2023/06/26 11:35:35;;;;;;;83.20;2.50;;;31.40;17.90;;;;;;4969873;28;20410;-80
2023/06/26 11:38:04;;;;;;;82.83;2.20;;;32.00;16.80;;;;;;4954451;28;20497;-80
2023/06/26 11:40:35;;;;;;;82.67;2.10;;;32.00;15.30;;;;;;4972571;28;20721;-80
2023/06/26 11:43:02;;;;;;;82.50;2.20;;;32.40;15.90;;;;;;4970590;28;20421;-80
2023/06/26 11:45:32;;;;;;;82.87;2.40;;;32.90;15.10;;;;;;4970354;28;20545;-80
2023/06/26 11:47:58;;;;;;;83.50;2.70;;;32.60;16.30;;;;;;4974867;28;20515;-79
2023/06/26 11:50:24;;;;;;;84.67;2.40;;;32.60;15.90;;;;;;4974846;28;20453;-79
2023/06/26 11:52:57;;;;;;;82.17;2.00;;;33.20;15.80;;;;;;4976535;28;20410;-80
2023/06/26 11:55:24;;;;;;;83.60;2.80;;;34.50;13.90;;;;;;4976398;28;20406;-79
2023/06/26 11:57:54;;;;;;;82.20;2.40;;;33.40;15.30;;;;;;4975057;28;20509;-80
2023/06/26 12:00:21;;;;;;;82.27;2.67;;;33.00;16.20;;;;;;4976394;28;20504;-80
2023/06/26 12:02:47;;;;;;;83.47;2.50;;;33.50;15.40;;;;;;4986836;28;21007;-79
2023/06/26 12:05:14;;;;;;;81.97;2.47;;;34.00;14.80;;;;;;4997170;28;20764;-80
2023/06/26 12:07:42;;;;;;;82.20;2.70;;;34.80;13.50;;;;;;4996391;28;20460;-79
2023/06/26 12:10:13;;;;;;;82.07;2.10;;;33.30;15.20;;;;;;4994628;28;20566;-79
2023/06/26 12:12:40;;;;;;;82.77;2.83;;;32.30;16.60;;;;;;4996095;28;20412;-80
2023/06/26 12:15:07;;;;;;;82.67;2.83;;;32.60;16.80;;;;;;4995225;28;20885;-79
2023/06/26 12:17:33;;;;;;;82.07;2.30;;;32.90;15.90;;;;;;4995612;28;20413;-80
2023/06/26 12:19:59;;;;;;;81.80;2.13;;;33.40;15.60;;;;;;4995489;28;20519;-80
2023/06/26 12:22:33;;;;;;;81.57;2.33;;;33.90;15.00;;;;;;4995534;28;20178;-79
2023/06/26 12:24:58;;;;;;;82.60;2.67;;;33.40;15.30;;;;;;4994328;28;20174;-78
2023/06/26 12:27:25;;;;;;;81.57;2.20;;;33.30;15.50;;;;;;4995233;28;20464;-78
2023/06/26 12:29:53;;;;;;;81.63;2.20;;;33.10;15.30;;;;;;4995032;28;20217;-79
2023/06/26 12:32:19;;;;;;;81.97;2.40;;;32.80;16.50;;;;;;4994902;28;20886;-79
2023/06/26 12:34:49;;;;;;;81.30;2.10;;;32.90;16.10;;;;;;4994509;28;20440;-80
2023/06/26 12:37:15;;;;;;;81.90;2.37;;;32.80;16.00;;;;;;4994873;28;20529;-79